Port Acres, Texas
Current Conditions -  °F | °C
As of 12:53 AM on Tuesday 21 Oct 2014 (Local Time) from KBPT Reporting Station
Clear Clear  
Wind Chill: 59°   Ceiling: Unl
Heat Index: 59°   Visibility: 10mi
Dew Point: 57°   Wind: 5mph
Humidity: 93%   Direction: 10°N
Pressure: 30.01"   Gusts: NA
Location:  29.7569°N, 94.1898°W
Report Text: KBPT 210553Z AUTO 01004KT 10SM CLR 15/14 A3001 RMK AO2 SLP161 T01500139 10222 20150 402830150 58003
Loading
Personal Weather Stations






























Interactive Weather Map New forecast layout! Learn more

10-Day Weather Forecast

Advertisements
Track Severe Weather on mobile